createdAt,value
2018-12-11T00:00:19.579Z,5.50
2018-12-11T00:02:47.989Z,5.70
2018-12-11T00:05:16.362Z,5.93
2018-12-11T00:07:44.906Z,5.67
2018-12-11T00:10:13.310Z,5.37
2018-12-11T00:12:41.730Z,5.43
2018-12-11T00:15:10.410Z,5.67
2018-12-11T00:17:38.912Z,4.93
2018-12-11T00:20:07.484Z,5.17
2018-12-11T00:22:35.875Z,5.37
2018-12-11T00:25:04.600Z,4.87
2018-12-11T00:27:33.006Z,5.60
2018-12-11T00:30:01.403Z,5.70
2018-12-11T00:32:29.784Z,4.87
2018-12-11T00:34:58.194Z,5.33
2018-12-11T00:37:26.596Z,4.77
2018-12-11T00:39:55.003Z,5.00
2018-12-11T00:42:23.449Z,5.00
2018-12-11T00:44:51.881Z,5.63
2018-12-11T00:47:20.896Z,4.60
2018-12-11T00:49:49.499Z,5.50
2018-12-11T00:52:17.898Z,5.40
2018-12-11T00:54:46.308Z,5.60
2018-12-11T00:57:14.805Z,5.03
2018-12-11T00:59:43.185Z,5.73
2018-12-11T01:02:11.615Z,5.47
2018-12-11T01:04:40.029Z,5.40
2018-12-11T01:07:08.424Z,6.00
2018-12-11T01:09:36.805Z,5.00
2018-12-11T01:12:05.458Z,5.00
2018-12-11T01:14:33.867Z,5.10
2018-12-11T01:17:02.246Z,4.97
2018-12-11T01:19:30.630Z,6.13
2018-12-11T01:21:59.016Z,5.50
2018-12-11T01:24:27.440Z,6.07
2018-12-11T01:26:55.857Z,6.10
2018-12-11T01:29:24.263Z,5.47
2018-12-11T01:31:52.769Z,6.37
2018-12-11T01:34:21.162Z,6.50
2018-12-11T01:36:49.598Z,5.83
2018-12-11T01:39:17.991Z,6.17
2018-12-11T01:41:46.378Z,5.97
2018-12-11T01:44:14.903Z,6.57
2018-12-11T01:46:43.464Z,5.80
2018-12-11T01:49:11.875Z,6.20
2018-12-11T01:51:40.426Z,6.40
2018-12-11T01:54:08.822Z,5.47
2018-12-11T01:56:37.211Z,6.20
2018-12-11T01:59:05.735Z,5.47
2018-12-11T02:01:34.147Z,5.80
2018-12-11T02:04:02.597Z,5.67
2018-12-11T02:06:31.627Z,4.73
2018-12-11T02:09:00.128Z,5.87
2018-12-11T02:11:28.546Z,5.87
2018-12-11T02:13:56.964Z,4.90
2018-12-11T02:16:25.487Z,5.03
2018-12-11T02:18:53.903Z,5.30
2018-12-11T02:21:22.425Z,5.37
2018-12-11T02:23:50.847Z,5.23
2018-12-11T02:26:19.245Z,5.57
2018-12-11T02:28:47.636Z,5.03
2018-12-11T02:31:16.017Z,5.10
2018-12-11T02:33:44.418Z,4.97
2018-12-11T02:36:12.834Z,5.07
2018-12-11T02:38:41.458Z,5.40
2018-12-11T02:41:10.043Z,5.60
2018-12-11T02:43:38.449Z,6.70
2018-12-11T02:46:06.836Z,6.00
2018-12-11T02:48:35.264Z,5.80
2018-12-11T02:51:03.947Z,6.13
2018-12-11T02:53:32.352Z,6.20
2018-12-11T02:56:00.739Z,6.37
2018-12-11T02:58:29.122Z,6.53
2018-12-11T03:00:57.520Z,6.20
2018-12-11T03:03:25.927Z,6.27
2018-12-11T03:05:54.333Z,6.07
2018-12-11T03:08:22.755Z,5.43
2018-12-11T03:10:51.333Z,6.67
2018-12-11T03:13:19.716Z,6.23
2018-12-11T03:15:48.292Z,6.70
2018-12-11T03:18:16.710Z,5.97
2018-12-11T03:20:45.184Z,5.47
2018-12-11T03:23:13.704Z,6.37
2018-12-11T03:25:42.112Z,6.13
2018-12-11T03:28:10.536Z,5.73
2018-12-11T03:30:39.121Z,5.37
2018-12-11T03:33:07.630Z,5.60
2018-12-11T03:35:36.033Z,6.20
2018-12-11T03:38:04.540Z,5.80
2018-12-11T03:40:32.944Z,6.20
2018-12-11T03:43:01.335Z,5.43
2018-12-11T03:45:29.769Z,5.27
2018-12-11T03:47:58.180Z,5.87
2018-12-11T03:50:26.630Z,5.53
2018-12-11T03:52:55.036Z,5.93
2018-12-11T03:55:23.432Z,5.97
2018-12-11T03:57:51.932Z,6.73
2018-12-11T04:00:27.067Z,6.20
2018-12-11T04:02:55.476Z,5.77
2018-12-11T04:05:23.873Z,6.03
2018-12-11T04:07:52.265Z,6.27
2018-12-11T04:10:20.710Z,6.50
2018-12-11T04:12:49.115Z,5.37
2018-12-11T04:15:17.615Z,5.50
2018-12-11T04:17:46.214Z,6.03
2018-12-11T04:20:14.760Z,6.80
2018-12-11T04:22:43.253Z,5.97
2018-12-11T04:25:11.768Z,6.03
2018-12-11T04:27:40.191Z,6.33
2018-12-11T04:30:09.202Z,6.87
2018-12-11T04:32:37.591Z,7.50
2018-12-11T04:35:06.150Z,6.43
2018-12-11T04:37:34.541Z,6.77
2018-12-11T04:40:02.944Z,6.27
2018-12-11T04:42:31.402Z,6.60
2018-12-11T04:44:59.779Z,6.60
2018-12-11T04:47:28.210Z,6.83
2018-12-11T04:49:56.615Z,7.47
2018-12-11T04:52:25.016Z,6.07
2018-12-11T04:54:53.423Z,6.40
2018-12-11T04:57:21.805Z,6.30
2018-12-11T04:59:50.229Z,5.60
2018-12-11T05:02:18.719Z,5.87
2018-12-11T05:04:47.123Z,5.77
2018-12-11T05:07:15.508Z,5.80
2018-12-11T05:09:44.047Z,5.60
2018-12-11T05:12:12.460Z,5.77
2018-12-11T05:14:40.871Z,6.00
2018-12-11T05:17:09.275Z,5.77
2018-12-11T05:19:37.710Z,5.60
2018-12-11T05:22:06.237Z,5.50
2018-12-11T05:24:34.684Z,6.00
2018-12-11T05:27:03.214Z,6.10
2018-12-11T05:29:31.602Z,5.40
2018-12-11T05:32:00.121Z,5.97
2018-12-11T05:34:28.525Z,5.97
2018-12-11T05:36:57.312Z,6.23
2018-12-11T05:39:25.718Z,5.93
2018-12-11T05:41:54.114Z,5.80
2018-12-11T05:44:22.616Z,6.27
2018-12-11T05:46:51.177Z,5.33
2018-12-11T05:49:19.574Z,5.60
2018-12-11T05:51:47.988Z,5.43
2018-12-11T05:54:16.395Z,5.73
2018-12-11T05:56:44.820Z,5.80
2018-12-11T05:59:13.208Z,5.63
2018-12-11T06:01:41.763Z,5.37
2018-12-11T06:04:10.171Z,5.90
2018-12-11T06:06:38.661Z,5.43
2018-12-11T06:09:08.501Z,4.80
2018-12-11T06:11:36.922Z,5.40
2018-12-11T06:14:05.324Z,5.63
2018-12-11T06:16:33.941Z,5.50
2018-12-11T06:19:02.364Z,5.90
2018-12-11T06:21:30.793Z,6.50
2018-12-11T06:23:59.212Z,6.03
2018-12-11T06:26:27.676Z,6.53
2018-12-11T06:28:56.266Z,6.77
2018-12-11T06:31:24.704Z,6.40
2018-12-11T06:33:53.208Z,6.60
2018-12-11T06:36:21.742Z,6.67
2018-12-11T06:38:50.167Z,6.57
2018-12-11T06:41:18.566Z,6.83
2018-12-11T06:43:47.103Z,8.13
2018-12-11T06:46:15.475Z,8.77
2018-12-11T06:48:43.945Z,8.50
2018-12-11T06:51:12.360Z,6.83
2018-12-11T06:53:40.765Z,7.40
2018-12-11T06:56:09.170Z,7.87
2018-12-11T06:58:37.628Z,7.43
2018-12-11T07:01:06.146Z,7.20
2018-12-11T07:03:34.551Z,7.33
2018-12-11T07:06:03.012Z,8.83
2018-12-11T07:08:31.398Z,7.50
2018-12-11T07:10:59.807Z,6.73
2018-12-11T07:13:28.324Z,6.97
2018-12-11T07:15:56.746Z,7.13
2018-12-11T07:18:26.072Z,6.33
2018-12-11T07:20:54.720Z,7.27
2018-12-11T07:23:23.213Z,7.57
2018-12-11T07:25:51.670Z,6.57
2018-12-11T07:28:20.078Z,6.47
2018-12-11T07:30:48.495Z,6.93
2018-12-11T07:33:17.092Z,7.37
2018-12-11T07:35:45.550Z,7.80
2018-12-11T07:38:13.946Z,7.87
2018-12-11T07:40:42.446Z,7.10
2018-12-11T07:43:10.839Z,7.17
2018-12-11T07:45:39.244Z,6.97
2018-12-11T07:48:07.747Z,6.43
2018-12-11T07:50:36.142Z,6.80
2018-12-11T07:53:06.526Z,6.77
2018-12-11T07:55:35.220Z,6.93
2018-12-11T07:58:03.733Z,6.90
2018-12-11T08:00:32.359Z,7.43
2018-12-11T08:03:00.872Z,6.83
2018-12-11T08:05:29.272Z,6.70
2018-12-11T08:07:57.822Z,8.10
2018-12-11T08:10:26.259Z,8.20
2018-12-11T08:12:54.678Z,7.27
2018-12-11T08:15:23.178Z,8.53
2018-12-11T08:17:51.598Z,10.10
2018-12-11T08:20:20.009Z,10.97
2018-12-11T08:22:48.412Z,9.80
2018-12-11T08:25:16.809Z,10.47
2018-12-11T08:27:45.370Z,10.27
2018-12-11T08:30:13.783Z,11.27
2018-12-11T08:32:42.197Z,9.37
2018-12-11T08:35:10.590Z,8.70
2018-12-11T08:37:39.159Z,9.53
2018-12-11T08:40:07.694Z,8.87
2018-12-11T08:42:36.096Z,9.53
2018-12-11T08:45:05.250Z,9.40
2018-12-11T08:47:33.759Z,12.63
2018-12-11T08:50:02.213Z,12.33
2018-12-11T08:52:30.696Z,12.30
2018-12-11T08:54:59.264Z,11.43
2018-12-11T08:57:27.667Z,9.97
2018-12-11T08:59:56.128Z,9.97
2018-12-11T09:02:24.547Z,10.50
2018-12-11T09:04:52.999Z,11.53
2018-12-11T09:07:21.388Z,10.60
2018-12-11T09:09:50.015Z,10.60
2018-12-11T09:12:18.506Z,9.47
2018-12-11T09:14:46.885Z,10.80
2018-12-11T09:17:15.333Z,10.23
2018-12-11T09:19:43.793Z,9.70
2018-12-11T09:22:12.189Z,8.33
2018-12-11T09:24:40.600Z,8.83
2018-12-11T09:27:09.003Z,8.40
2018-12-11T09:29:37.455Z,8.10
2018-12-11T09:32:06.124Z,8.70
2018-12-11T09:34:34.521Z,7.87
2018-12-11T09:37:03.000Z,8.73
2018-12-11T09:39:31.447Z,8.57
2018-12-11T09:41:59.852Z,8.17
2018-12-11T09:44:28.272Z,8.87
2018-12-11T09:46:56.771Z,8.10
2018-12-11T09:49:25.536Z,7.53
2018-12-11T09:51:56.659Z,6.90
2018-12-11T09:54:25.120Z,6.90
2018-12-11T09:56:55.091Z,8.00
2018-12-11T09:59:23.767Z,8.00
2018-12-11T10:01:52.475Z,7.13
2018-12-11T10:04:20.898Z,7.80
2018-12-11T10:06:49.350Z,7.50
2018-12-11T10:09:17.884Z,7.33
2018-12-11T10:11:46.279Z,6.23
2018-12-11T10:14:14.691Z,7.23
2018-12-11T10:16:43.079Z,7.00
2018-12-11T10:19:11.680Z,6.73
2018-12-11T10:21:40.119Z,7.10
2018-12-11T10:24:08.614Z,6.17
2018-12-11T10:26:37.157Z,6.27
2018-12-11T10:29:06.017Z,7.37
2018-12-11T10:31:34.485Z,6.30
2018-12-11T10:34:02.959Z,6.57
2018-12-11T10:36:31.394Z,7.17
2018-12-11T10:38:59.907Z,6.97
2018-12-11T10:41:28.315Z,6.97
2018-12-11T10:43:56.787Z,6.80
2018-12-11T10:46:25.265Z,6.77
2018-12-11T10:48:55.107Z,7.00
2018-12-11T10:51:23.528Z,6.63
2018-12-11T10:53:52.017Z,6.13
2018-12-11T10:56:20.466Z,5.50
2018-12-11T10:58:48.869Z,4.63
2018-12-11T11:01:21.759Z,5.17
2018-12-11T11:03:50.182Z,4.97
2018-12-11T11:06:18.620Z,5.50
2018-12-11T11:08:47.025Z,5.63
2018-12-11T11:11:15.575Z,6.90
2018-12-11T11:13:44.204Z,6.77
2018-12-11T11:16:15.112Z,7.07
2018-12-11T11:18:44.828Z,7.17
2018-12-11T11:21:13.398Z,5.83
2018-12-11T11:23:41.991Z,5.83
2018-12-11T11:26:10.550Z,6.10
2018-12-11T11:28:39.148Z,6.07
2018-12-11T11:31:07.605Z,5.57
2018-12-11T11:33:36.105Z,5.37
2018-12-11T11:36:04.701Z,5.20
2018-12-11T11:38:33.104Z,5.00
2018-12-11T11:41:01.496Z,5.27
2018-12-11T11:43:30.005Z,5.33
2018-12-11T11:45:58.497Z,4.97
2018-12-11T11:48:26.957Z,5.10
2018-12-11T11:50:55.353Z,5.60
2018-12-11T11:53:23.769Z,5.37
2018-12-11T11:55:52.197Z,4.07
2018-12-11T11:58:20.608Z,4.60
2018-12-11T12:00:49.031Z,4.80
2018-12-11T12:03:17.446Z,4.97
2018-12-11T12:05:45.850Z,4.20
2018-12-11T12:08:14.290Z,3.50
2018-12-11T12:10:42.688Z,4.10
2018-12-11T12:13:11.112Z,3.60
2018-12-11T12:15:39.551Z,3.63
2018-12-11T12:18:07.963Z,3.20
2018-12-11T12:20:36.360Z,3.17
2018-12-11T12:23:04.757Z,2.80
2018-12-11T12:25:33.155Z,2.80
2018-12-11T12:28:01.588Z,2.20
2018-12-11T12:30:30.502Z,1.77
2018-12-11T12:32:59.006Z,2.43
2018-12-11T12:35:27.432Z,4.23
2018-12-11T12:37:55.856Z,3.00
2018-12-11T12:40:24.579Z,2.17
2018-12-11T12:42:52.998Z,1.40
2018-12-11T12:45:21.430Z,2.23
2018-12-11T12:47:49.835Z,2.40
2018-12-11T12:50:18.267Z,2.60
2018-12-11T12:52:46.655Z,5.67
2018-12-11T12:55:15.123Z,1.50
2018-12-11T12:57:43.591Z,1.80
2018-12-11T13:13:53.323Z,1.90
2018-12-11T13:16:21.724Z,1.80
2018-12-11T13:18:50.118Z,1.83
2018-12-11T13:21:18.539Z,1.93
2018-12-11T13:23:46.949Z,2.10
2018-12-11T13:26:15.355Z,1.70
2018-12-11T13:28:43.772Z,2.30
2018-12-11T13:31:12.172Z,2.27
2018-12-11T13:33:40.567Z,1.80
2018-12-11T13:36:08.993Z,2.33
2018-12-11T13:38:37.450Z,2.10
2018-12-11T13:41:05.956Z,1.60
2018-12-11T13:43:34.706Z,2.00
2018-12-11T13:46:03.087Z,2.03
2018-12-11T13:48:31.813Z,2.23
2018-12-11T13:51:00.349Z,2.07
2018-12-11T13:53:28.754Z,1.63
2018-12-11T13:55:57.153Z,2.07
2018-12-11T13:58:25.566Z,2.13
2018-12-11T14:00:53.961Z,1.77
2018-12-11T14:03:22.377Z,2.10
2018-12-11T14:05:50.791Z,1.90
2018-12-11T14:08:19.181Z,2.10
2018-12-11T14:10:47.620Z,2.60
2018-12-11T14:13:16.059Z,2.03
2018-12-11T14:15:44.453Z,1.90
2018-12-11T14:18:12.847Z,2.27
2018-12-11T14:20:41.232Z,2.17
2018-12-11T14:23:09.619Z,2.27
2018-12-11T14:25:38.249Z,2.73
2018-12-11T14:28:06.633Z,2.63
2018-12-11T14:30:35.153Z,2.90
2018-12-11T14:33:03.541Z,2.90
2018-12-11T14:35:31.938Z,2.87
2018-12-11T14:38:00.472Z,2.40
2018-12-11T14:40:28.920Z,2.30
2018-12-11T14:42:57.314Z,2.63
2018-12-11T14:45:25.730Z,2.47
2018-12-11T14:47:54.140Z,2.60
2018-12-11T14:50:22.639Z,2.80
2018-12-11T14:52:51.160Z,2.73
2018-12-11T14:55:19.577Z,2.33
2018-12-11T14:57:48.014Z,2.63
2018-12-11T15:00:16.673Z,2.60
2018-12-11T15:02:45.480Z,2.97
2018-12-11T15:05:14.004Z,3.17
2018-12-11T15:07:42.633Z,2.57
2018-12-11T15:10:12.220Z,3.00
2018-12-11T15:12:40.932Z,2.63
2018-12-11T15:15:10.428Z,3.40
2018-12-11T15:17:38.825Z,3.53
2018-12-11T15:20:08.822Z,3.40
2018-12-11T15:22:37.446Z,4.40
2018-12-11T15:25:06.344Z,4.73
2018-12-11T15:27:34.779Z,6.10
2018-12-11T15:30:03.340Z,6.33
2018-12-11T15:32:31.738Z,6.20
2018-12-11T15:35:00.216Z,6.23
2018-12-11T15:37:28.635Z,7.50
2018-12-11T15:39:57.085Z,7.50
2018-12-11T15:42:25.573Z,7.33
2018-12-11T15:44:53.997Z,6.73
2018-12-11T15:47:22.480Z,7.03
2018-12-11T15:49:51.016Z,7.03
2018-12-11T15:52:19.423Z,8.20
2018-12-11T15:54:47.858Z,8.77
2018-12-11T15:57:16.300Z,9.70
2018-12-11T15:59:44.709Z,8.57
2018-12-11T16:02:13.228Z,9.23
2018-12-11T16:04:41.642Z,9.70
2018-12-11T16:07:10.129Z,9.10
2018-12-11T16:09:38.640Z,8.93
2018-12-11T16:12:07.490Z,9.37
2018-12-11T16:14:35.995Z,9.43
2018-12-11T16:17:04.415Z,8.47
2018-12-11T16:19:32.836Z,9.50
2018-12-11T16:22:01.258Z,9.13
2018-12-11T16:24:29.638Z,8.93
2018-12-11T16:26:58.075Z,9.77
2018-12-11T16:29:26.498Z,9.37
2018-12-11T16:31:55.011Z,9.53
2018-12-11T16:34:23.494Z,9.70
2018-12-11T16:36:52.008Z,10.67
2018-12-11T16:39:20.418Z,9.97
2018-12-11T16:41:48.864Z,9.50
2018-12-11T16:44:17.358Z,10.13
2018-12-11T16:46:47.123Z,16.13
2018-12-11T16:49:15.584Z,11.17
2018-12-11T16:51:44.028Z,10.70
2018-12-11T16:54:12.528Z,16.93
2018-12-11T16:56:41.042Z,16.13
2018-12-11T16:59:09.579Z,16.33
2018-12-11T17:01:38.188Z,15.63
2018-12-11T17:04:06.644Z,14.77
2018-12-11T17:06:35.043Z,15.80
2018-12-11T17:09:05.104Z,13.67
2018-12-11T17:11:33.505Z,13.23
2018-12-11T17:14:01.924Z,13.47
2018-12-11T17:16:30.343Z,13.90
2018-12-11T17:18:58.859Z,15.93
2018-12-11T17:21:27.257Z,16.27
2018-12-11T17:23:55.666Z,48.10
2018-12-11T17:26:24.100Z,18.50
2018-12-11T17:28:52.511Z,16.27
2018-12-11T17:31:21.038Z,15.50
2018-12-11T17:33:49.471Z,15.80
2018-12-11T17:36:17.923Z,15.87
2018-12-11T17:38:46.397Z,16.83
2018-12-11T17:41:14.829Z,15.90
2018-12-11T17:43:43.224Z,15.97
2018-12-11T17:46:11.659Z,17.63
2018-12-11T17:48:41.690Z,16.87
2018-12-11T17:51:10.639Z,17.30
2018-12-11T17:53:39.185Z,16.13
2018-12-11T17:56:07.603Z,15.37
2018-12-11T17:58:36.052Z,15.63
2018-12-11T18:01:05.003Z,15.10
2018-12-11T18:03:33.737Z,17.80
2018-12-11T18:08:42.175Z,16.43
2018-12-11T18:11:10.628Z,17.30
2018-12-11T18:13:39.014Z,17.20
2018-12-11T18:16:07.680Z,18.23
2018-12-11T18:18:36.211Z,17.27
2018-12-11T18:21:05.348Z,18.77
2018-12-11T18:23:33.812Z,18.47
2018-12-11T18:26:02.236Z,17.47
2018-12-11T18:28:30.637Z,18.23
2018-12-11T18:30:59.087Z,18.47
2018-12-11T18:33:27.575Z,18.53
2018-12-11T18:35:56.050Z,19.70
2018-12-11T18:38:25.003Z,19.53
2018-12-11T18:40:53.516Z,19.70
2018-12-11T18:43:21.966Z,18.87
2018-12-11T18:45:50.364Z,19.70
2018-12-11T18:48:19.245Z,21.37
2018-12-11T18:50:47.775Z,21.70
2018-12-11T18:53:16.577Z,24.97
2018-12-11T18:55:45.015Z,25.93
2018-12-11T18:58:13.573Z,26.83
2018-12-11T19:00:42.084Z,26.47
2018-12-11T19:03:10.526Z,25.07
2018-12-11T19:05:39.044Z,26.70
2018-12-11T19:08:07.584Z,25.30
2018-12-11T19:10:36.033Z,25.57
2018-12-11T19:13:04.936Z,25.63
2018-12-11T19:15:33.389Z,24.63
2018-12-11T19:18:01.787Z,26.10
2018-12-11T19:20:30.206Z,25.17
2018-12-11T19:23:06.956Z,25.50
2018-12-11T19:25:35.397Z,27.17
2018-12-11T19:28:03.984Z,28.17
2018-12-11T19:30:32.436Z,31.93
2018-12-11T19:33:00.905Z,28.53
2018-12-11T19:35:33.048Z,29.03
2018-12-11T19:37:59.781Z,29.40
2018-12-11T19:40:28.215Z,29.03
2018-12-11T19:42:56.704Z,27.30
2018-12-11T19:45:25.126Z,26.40
2018-12-11T19:47:53.627Z,27.23
2018-12-11T19:50:22.360Z,26.47
2018-12-11T19:52:50.803Z,27.87
2018-12-11T19:55:19.260Z,26.80
2018-12-11T19:57:47.700Z,26.77
2018-12-11T20:00:16.160Z,27.03
2018-12-11T20:02:44.589Z,27.30
2018-12-11T20:05:13.225Z,27.77
2018-12-11T20:07:41.739Z,25.87
2018-12-11T20:10:15.689Z,27.43
2018-12-11T20:12:44.585Z,28.03
2018-12-11T20:15:13.232Z,27.23
2018-12-11T20:17:41.761Z,28.53
2018-12-11T20:20:19.097Z,28.10
2018-12-11T20:22:47.523Z,28.93
2018-12-11T20:25:15.949Z,27.93
2018-12-11T20:27:44.473Z,27.97
2018-12-11T20:30:13.069Z,27.23
2018-12-11T20:32:41.507Z,28.40
2018-12-11T20:35:09.966Z,29.83
2018-12-11T20:37:38.371Z,30.07
2018-12-11T20:40:07.401Z,29.40
2018-12-11T20:42:35.854Z,30.67
2018-12-11T20:45:05.475Z,29.07
2018-12-11T20:47:34.045Z,29.43
2018-12-11T20:50:02.489Z,29.33
2018-12-11T20:52:30.907Z,28.23
2018-12-11T20:54:59.388Z,29.80
2018-12-11T20:57:27.868Z,29.73
2018-12-11T20:59:56.361Z,32.00
2018-12-11T21:02:24.772Z,31.77
2018-12-11T21:04:53.205Z,29.07
2018-12-11T21:07:21.700Z,28.27
2018-12-11T21:09:50.118Z,27.07
2018-12-11T21:12:18.630Z,29.27
2018-12-11T21:14:47.175Z,29.13
2018-12-11T21:17:15.592Z,28.00
2018-12-11T21:19:44.042Z,27.30
2018-12-11T21:22:12.561Z,27.53
2018-12-11T21:24:41.138Z,25.87
2018-12-11T21:27:09.781Z,27.30
2018-12-11T21:29:38.330Z,26.97
2018-12-11T21:32:06.897Z,28.90
2018-12-11T21:34:35.411Z,27.33
2018-12-11T21:37:05.436Z,27.13
2018-12-11T21:39:33.983Z,27.47
2018-12-11T21:42:02.405Z,28.50
2018-12-11T21:44:30.811Z,26.93
2018-12-11T21:46:59.323Z,27.73
2018-12-11T21:49:27.898Z,26.17
2018-12-11T21:51:56.361Z,24.67
2018-12-11T21:54:24.846Z,27.60
2018-12-11T21:56:53.277Z,26.60
2018-12-11T21:59:21.818Z,28.40
2018-12-11T22:01:50.300Z,30.00
2018-12-11T22:04:18.765Z,29.50
2018-12-11T22:06:47.182Z,29.47
2018-12-11T22:09:15.609Z,29.90
2018-12-11T22:11:44.101Z,29.53
2018-12-11T22:14:12.506Z,30.20
2018-12-11T22:16:41.062Z,29.13
2018-12-11T22:19:09.593Z,28.23
2018-12-11T22:21:38.128Z,27.60
2018-12-11T22:24:06.573Z,28.47
2018-12-11T22:26:35.092Z,28.07
2018-12-11T22:29:03.570Z,27.20
2018-12-11T22:31:32.270Z,28.13
2018-12-11T22:34:00.674Z,28.03
2018-12-11T22:36:29.087Z,29.13
2018-12-11T22:38:57.490Z,28.50
2018-12-11T22:41:26.035Z,27.70
2018-12-11T22:43:54.482Z,28.83
2018-12-11T22:46:23.144Z,28.13
2018-12-11T22:48:51.757Z,28.07
2018-12-11T22:51:21.193Z,28.60
2018-12-11T22:53:49.663Z,27.20
2018-12-11T22:56:18.152Z,26.77
2018-12-11T22:58:46.595Z,27.23
2018-12-11T23:01:15.096Z,27.53
2018-12-11T23:03:43.519Z,25.03
2018-12-11T23:06:12.025Z,25.83
2018-12-11T23:08:40.455Z,26.87
2018-12-11T23:11:08.862Z,25.83
2018-12-11T23:13:37.304Z,25.47
2018-12-11T23:16:05.967Z,25.90
2018-12-11T23:18:34.352Z,26.87
2018-12-11T23:21:02.805Z,26.47
2018-12-11T23:23:31.544Z,24.47
2018-12-11T23:25:59.949Z,24.70
2018-12-11T23:28:28.332Z,25.67
2018-12-11T23:30:56.778Z,25.67
2018-12-11T23:33:25.490Z,25.37
2018-12-11T23:35:54.072Z,24.07
2018-12-11T23:38:22.556Z,24.37
2018-12-11T23:40:50.960Z,24.17
2018-12-11T23:43:19.489Z,23.83
2018-12-11T23:45:47.883Z,23.47
2018-12-11T23:48:16.294Z,22.70
2018-12-11T23:50:44.931Z,23.80
2018-12-11T23:53:13.420Z,23.23
2018-12-11T23:55:41.821Z,23.13
2018-12-11T23:58:10.238Z,22.83
